sensor_id;sensor_type;location;lat;lon;timestamp;temperature;humidity
21259;DHT22;10787;53.364;-1.480;2023-04-19T00:01:29;7.50;1.00
21259;DHT22;10787;53.364;-1.480;2023-04-19T00:04:14;7.50;1.00
21259;DHT22;10787;53.364;-1.480;2023-04-19T00:06:58;7.40;1.00
21259;DHT22;10787;53.364;-1.480;2023-04-19T00:09:43;7.40;1.00
21259;DHT22;10787;53.364;-1.480;2023-04-19T00:12:27;7.40;1.00
21259;DHT22;10787;53.364;-1.480;2023-04-19T00:15:12;7.40;1.00
21259;DHT22;10787;53.364;-1.480;2023-04-19T00:17:56;7.40;1.00
21259;DHT22;10787;53.364;-1.480;2023-04-19T00:20:40;7.40;1.00
21259;DHT22;10787;53.364;-1.480;2023-04-19T00:23:24;7.30;1.00
21259;DHT22;10787;53.364;-1.480;2023-04-19T00:26:09;7.30;1.00
21259;DHT22;10787;53.364;-1.480;2023-04-19T00:28:54;7.30;1.00
21259;DHT22;10787;53.364;-1.480;2023-04-19T00:31:38;7.30;1.00
21259;DHT22;10787;53.364;-1.480;2023-04-19T00:34:23;7.20;1.00
21259;DHT22;10787;53.364;-1.480;2023-04-19T00:37:08;7.20;1.00
21259;DHT22;10787;53.364;-1.480;2023-04-19T00:39:54;7.30;1.00
21259;DHT22;10787;53.364;-1.480;2023-04-19T00:42:38;7.30;1.00
21259;DHT22;10787;53.364;-1.480;2023-04-19T00:45:24;7.50;1.00
21259;DHT22;10787;53.364;-1.480;2023-04-19T00:48:09;7.60;1.00
21259;DHT22;10787;53.364;-1.480;2023-04-19T00:50:54;7.70;1.00
21259;DHT22;10787;53.364;-1.480;2023-04-19T00:53:39;7.90;1.00
21259;DHT22;10787;53.364;-1.480;2023-04-19T00:56:26;7.90;1.00
21259;DHT22;10787;53.364;-1.480;2023-04-19T00:59:11;8.00;1.00
21259;DHT22;10787;53.364;-1.480;2023-04-19T01:01:56;8.00;1.00
21259;DHT22;10787;53.364;-1.480;2023-04-19T01:04:41;8.10;1.00
21259;DHT22;10787;53.364;-1.480;2023-04-19T01:07:25;8.10;1.00
21259;DHT22;10787;53.364;-1.480;2023-04-19T01:10:09;8.20;1.00
21259;DHT22;10787;53.364;-1.480;2023-04-19T01:12:54;8.20;1.00
21259;DHT22;10787;53.364;-1.480;2023-04-19T01:15:38;8.20;1.00
21259;DHT22;10787;53.364;-1.480;2023-04-19T01:18:23;8.20;1.00
21259;DHT22;10787;53.364;-1.480;2023-04-19T01:21:09;8.30;1.00
21259;DHT22;10787;53.364;-1.480;2023-04-19T01:23:53;8.20;1.00
21259;DHT22;10787;53.364;-1.480;2023-04-19T01:26:38;8.30;1.00
21259;DHT22;10787;53.364;-1.480;2023-04-19T01:29:22;8.20;1.00
21259;DHT22;10787;53.364;-1.480;2023-04-19T01:32:06;8.20;1.00
21259;DHT22;10787;53.364;-1.480;2023-04-19T01:34:51;8.30;1.00
21259;DHT22;10787;53.364;-1.480;2023-04-19T01:37:36;8.20;1.00
21259;DHT22;10787;53.364;-1.480;2023-04-19T01:40:23;8.30;1.00
21259;DHT22;10787;53.364;-1.480;2023-04-19T01:43:09;8.30;1.00
21259;DHT22;10787;53.364;-1.480;2023-04-19T01:45:53;8.30;1.00
21259;DHT22;10787;53.364;-1.480;2023-04-19T01:48:37;8.20;1.00
21259;DHT22;10787;53.364;-1.480;2023-04-19T01:51:22;8.20;1.00
21259;DHT22;10787;53.364;-1.480;2023-04-19T01:54:06;8.30;1.00
21259;DHT22;10787;53.364;-1.480;2023-04-19T01:56:50;8.30;1.00
21259;DHT22;10787;53.364;-1.480;2023-04-19T01:59:34;8.30;1.00
21259;DHT22;10787;53.364;-1.480;2023-04-19T02:02:20;8.30;1.00
21259;DHT22;10787;53.364;-1.480;2023-04-19T02:05:05;8.30;1.00
21259;DHT22;10787;53.364;-1.480;2023-04-19T02:07:50;8.30;1.00
21259;DHT22;10787;53.364;-1.480;2023-04-19T02:10:34;8.30;1.00
21259;DHT22;10787;53.364;-1.480;2023-04-19T02:13:18;8.30;1.00
21259;DHT22;10787;53.364;-1.480;2023-04-19T02:16:03;8.30;1.00
21259;DHT22;10787;53.364;-1.480;2023-04-19T02:18:48;8.20;1.00
21259;DHT22;10787;53.364;-1.480;2023-04-19T02:21:32;8.20;1.00
21259;DHT22;10787;53.364;-1.480;2023-04-19T02:24:17;8.10;1.00
21259;DHT22;10787;53.364;-1.480;2023-04-19T02:27:01;8.10;1.00
21259;DHT22;10787;53.364;-1.480;2023-04-19T02:29:46;8.20;1.00
21259;DHT22;10787;53.364;-1.480;2023-04-19T02:32:30;8.20;1.00
21259;DHT22;10787;53.364;-1.480;2023-04-19T02:35:15;8.20;1.00
21259;DHT22;10787;53.364;-1.480;2023-04-19T02:38:01;8.30;1.00
21259;DHT22;10787;53.364;-1.480;2023-04-19T02:40:46;8.20;1.00
21259;DHT22;10787;53.364;-1.480;2023-04-19T02:43:30;8.20;1.00
21259;DHT22;10787;53.364;-1.480;2023-04-19T02:46:15;8.20;1.00
21259;DHT22;10787;53.364;-1.480;2023-04-19T02:49:02;8.20;1.00
21259;DHT22;10787;53.364;-1.480;2023-04-19T02:51:47;8.20;1.00
21259;DHT22;10787;53.364;-1.480;2023-04-19T02:54:33;8.20;1.00
21259;DHT22;10787;53.364;-1.480;2023-04-19T02:57:18;8.30;1.00
21259;DHT22;10787;53.364;-1.480;2023-04-19T03:00:02;8.30;1.00
21259;DHT22;10787;53.364;-1.480;2023-04-19T03:02:48;8.30;1.00
21259;DHT22;10787;53.364;-1.480;2023-04-19T03:05:33;8.30;1.00
21259;DHT22;10787;53.364;-1.480;2023-04-19T03:08:17;8.30;1.00
21259;DHT22;10787;53.364;-1.480;2023-04-19T03:11:01;8.30;1.00
21259;DHT22;10787;53.364;-1.480;2023-04-19T03:13:45;8.40;1.00
21259;DHT22;10787;53.364;-1.480;2023-04-19T03:16:30;8.40;1.00
21259;DHT22;10787;53.364;-1.480;2023-04-19T03:19:13;8.40;1.00
21259;DHT22;10787;53.364;-1.480;2023-04-19T03:21:58;8.40;1.00
21259;DHT22;10787;53.364;-1.480;2023-04-19T03:24:43;8.40;1.00
21259;DHT22;10787;53.364;-1.480;2023-04-19T03:27:27;8.50;1.00
21259;DHT22;10787;53.364;-1.480;2023-04-19T03:30:11;8.50;1.00
21259;DHT22;10787;53.364;-1.480;2023-04-19T03:32:56;8.50;1.00
21259;DHT22;10787;53.364;-1.480;2023-04-19T03:35:42;8.50;1.00
21259;DHT22;10787;53.364;-1.480;2023-04-19T03:38:27;8.50;1.00
21259;DHT22;10787;53.364;-1.480;2023-04-19T03:41:23;8.50;1.00
21259;DHT22;10787;53.364;-1.480;2023-04-19T03:44:07;8.50;1.00
21259;DHT22;10787;53.364;-1.480;2023-04-19T03:46:51;8.50;1.00
21259;DHT22;10787;53.364;-1.480;2023-04-19T03:49:35;8.60;1.00
21259;DHT22;10787;53.364;-1.480;2023-04-19T03:52:19;8.50;1.00
21259;DHT22;10787;53.364;-1.480;2023-04-19T03:55:03;8.50;1.00
21259;DHT22;10787;53.364;-1.480;2023-04-19T03:57:48;8.50;1.00
21259;DHT22;10787;53.364;-1.480;2023-04-19T04:00:32;8.60;1.00
21259;DHT22;10787;53.364;-1.480;2023-04-19T04:03:16;8.70;1.00
21259;DHT22;10787;53.364;-1.480;2023-04-19T04:06:00;8.60;1.00
21259;DHT22;10787;53.364;-1.480;2023-04-19T04:08:45;8.70;1.00
21259;DHT22;10787;53.364;-1.480;2023-04-19T04:11:29;8.70;1.00
21259;DHT22;10787;53.364;-1.480;2023-04-19T04:14:14;8.70;1.00
21259;DHT22;10787;53.364;-1.480;2023-04-19T04:16:58;8.70;1.00
21259;DHT22;10787;53.364;-1.480;2023-04-19T04:19:43;8.60;1.00
21259;DHT22;10787;53.364;-1.480;2023-04-19T04:22:28;8.60;1.00
21259;DHT22;10787;53.364;-1.480;2023-04-19T04:25:12;8.70;1.00
21259;DHT22;10787;53.364;-1.480;2023-04-19T04:27:58;8.60;1.00
21259;DHT22;10787;53.364;-1.480;2023-04-19T04:30:43;8.70;1.00
21259;DHT22;10787;53.364;-1.480;2023-04-19T04:33:28;8.70;1.00
21259;DHT22;10787;53.364;-1.480;2023-04-19T04:36:12;8.70;1.00
21259;DHT22;10787;53.364;-1.480;2023-04-19T04:38:57;8.70;1.00
21259;DHT22;10787;53.364;-1.480;2023-04-19T04:41:41;8.70;1.00
21259;DHT22;10787;53.364;-1.480;2023-04-19T04:44:26;8.70;1.00
21259;DHT22;10787;53.364;-1.480;2023-04-19T04:47:12;8.70;1.00
21259;DHT22;10787;53.364;-1.480;2023-04-19T04:49:58;8.60;1.00
21259;DHT22;10787;53.364;-1.480;2023-04-19T04:52:42;8.60;1.00
21259;DHT22;10787;53.364;-1.480;2023-04-19T04:55:26;8.70;1.00
21259;DHT22;10787;53.364;-1.480;2023-04-19T04:58:10;8.70;1.00
21259;DHT22;10787;53.364;-1.480;2023-04-19T05:00:55;8.70;1.00
21259;DHT22;10787;53.364;-1.480;2023-04-19T05:03:39;8.70;1.00
21259;DHT22;10787;53.364;-1.480;2023-04-19T05:06:23;8.70;1.00
21259;DHT22;10787;53.364;-1.480;2023-04-19T05:09:08;8.60;1.00
21259;DHT22;10787;53.364;-1.480;2023-04-19T05:11:52;8.70;1.00
21259;DHT22;10787;53.364;-1.480;2023-04-19T05:14:37;8.70;1.00
21259;DHT22;10787;53.364;-1.480;2023-04-19T05:17:21;8.70;1.00
21259;DHT22;10787;53.364;-1.480;2023-04-19T05:20:06;8.70;1.00
21259;DHT22;10787;53.364;-1.480;2023-04-19T05:22:56;8.70;1.00
21259;DHT22;10787;53.364;-1.480;2023-04-19T05:25:40;8.70;1.00
21259;DHT22;10787;53.364;-1.480;2023-04-19T05:28:24;8.70;1.00
21259;DHT22;10787;53.364;-1.480;2023-04-19T05:31:09;8.70;1.00
21259;DHT22;10787;53.364;-1.480;2023-04-19T05:33:53;8.70;1.00
21259;DHT22;10787;53.364;-1.480;2023-04-19T05:36:38;8.70;1.00
21259;DHT22;10787;53.364;-1.480;2023-04-19T05:39:22;8.70;1.00
21259;DHT22;10787;53.364;-1.480;2023-04-19T05:42:06;8.70;1.00
21259;DHT22;10787;53.364;-1.480;2023-04-19T05:44:51;8.60;1.00
21259;DHT22;10787;53.364;-1.480;2023-04-19T05:47:35;8.70;1.00
21259;DHT22;10787;53.364;-1.480;2023-04-19T05:50:19;8.90;1.00
21259;DHT22;10787;53.364;-1.480;2023-04-19T05:53:03;9.10;1.00
21259;DHT22;10787;53.364;-1.480;2023-04-19T05:55:48;9.20;1.00
21259;DHT22;10787;53.364;-1.480;2023-04-19T05:58:34;9.20;1.00
21259;DHT22;10787;53.364;-1.480;2023-04-19T06:01:19;9.30;1.00
21259;DHT22;10787;53.364;-1.480;2023-04-19T06:04:03;9.20;1.00
21259;DHT22;10787;53.364;-1.480;2023-04-19T06:06:47;9.20;1.00
21259;DHT22;10787;53.364;-1.480;2023-04-19T06:09:31;9.10;1.00
21259;DHT22;10787;53.364;-1.480;2023-04-19T06:12:16;9.10;1.00
21259;DHT22;10787;53.364;-1.480;2023-04-19T06:15:00;9.10;1.00
21259;DHT22;10787;53.364;-1.480;2023-04-19T06:17:44;9.00;1.00
21259;DHT22;10787;53.364;-1.480;2023-04-19T06:20:28;9.00;1.00
21259;DHT22;10787;53.364;-1.480;2023-04-19T06:23:13;9.00;1.00
21259;DHT22;10787;53.364;-1.480;2023-04-19T06:25:57;9.00;1.00
21259;DHT22;10787;53.364;-1.480;2023-04-19T06:28:42;9.00;1.00
21259;DHT22;10787;53.364;-1.480;2023-04-19T06:31:26;9.00;1.00
21259;DHT22;10787;53.364;-1.480;2023-04-19T06:34:11;9.00;1.00
21259;DHT22;10787;53.364;-1.480;2023-04-19T06:36:55;8.90;1.00
21259;DHT22;10787;53.364;-1.480;2023-04-19T06:39:39;8.90;1.00
21259;DHT22;10787;53.364;-1.480;2023-04-19T06:42:24;8.80;1.00
21259;DHT22;10787;53.364;-1.480;2023-04-19T06:45:09;8.90;1.00
21259;DHT22;10787;53.364;-1.480;2023-04-19T06:47:54;9.00;1.00
21259;DHT22;10787;53.364;-1.480;2023-04-19T06:50:38;9.00;1.00
21259;DHT22;10787;53.364;-1.480;2023-04-19T06:53:23;9.10;1.00
21259;DHT22;10787;53.364;-1.480;2023-04-19T06:56:08;9.10;1.00
21259;DHT22;10787;53.364;-1.480;2023-04-19T06:58:53;9.20;1.00
21259;DHT22;10787;53.364;-1.480;2023-04-19T07:01:38;9.10;1.00
21259;DHT22;10787;53.364;-1.480;2023-04-19T07:04:25;9.20;1.00
21259;DHT22;10787;53.364;-1.480;2023-04-19T07:07:10;9.20;1.00
21259;DHT22;10787;53.364;-1.480;2023-04-19T07:09:54;9.30;1.00
21259;DHT22;10787;53.364;-1.480;2023-04-19T07:12:39;9.30;1.00
21259;DHT22;10787;53.364;-1.480;2023-04-19T07:15:23;9.30;1.00
21259;DHT22;10787;53.364;-1.480;2023-04-19T07:18:08;9.40;1.00
21259;DHT22;10787;53.364;-1.480;2023-04-19T07:20:54;9.40;1.00
21259;DHT22;10787;53.364;-1.480;2023-04-19T07:23:38;9.40;1.00
21259;DHT22;10787;53.364;-1.480;2023-04-19T07:26:23;9.40;1.00
21259;DHT22;10787;53.364;-1.480;2023-04-19T07:29:07;9.50;1.00
21259;DHT22;10787;53.364;-1.480;2023-04-19T07:31:51;9.60;1.00
21259;DHT22;10787;53.364;-1.480;2023-04-19T07:34:39;9.70;1.00
21259;DHT22;10787;53.364;-1.480;2023-04-19T07:37:24;9.70;1.00
21259;DHT22;10787;53.364;-1.480;2023-04-19T07:40:09;9.80;1.00
21259;DHT22;10787;53.364;-1.480;2023-04-19T07:42:55;9.90;1.00
21259;DHT22;10787;53.364;-1.480;2023-04-19T07:45:39;10.00;1.00
21259;DHT22;10787;53.364;-1.480;2023-04-19T07:48:23;10.10;1.00
21259;DHT22;10787;53.364;-1.480;2023-04-19T07:51:15;10.20;1.00
21259;DHT22;10787;53.364;-1.480;2023-04-19T07:54:00;10.20;1.00
21259;DHT22;10787;53.364;-1.480;2023-04-19T07:56:45;10.20;1.00
21259;DHT22;10787;53.364;-1.480;2023-04-19T07:59:29;10.20;1.00
21259;DHT22;10787;53.364;-1.480;2023-04-19T08:02:16;10.20;1.00
21259;DHT22;10787;53.364;-1.480;2023-04-19T08:05:02;10.30;1.00
21259;DHT22;10787;53.364;-1.480;2023-04-19T08:07:47;10.30;1.00
21259;DHT22;10787;53.364;-1.480;2023-04-19T08:10:32;10.40;1.00
21259;DHT22;10787;53.364;-1.480;2023-04-19T08:13:17;10.40;1.00
21259;DHT22;10787;53.364;-1.480;2023-04-19T08:16:01;10.50;1.00
21259;DHT22;10787;53.364;-1.480;2023-04-19T08:18:46;10.80;1.00
21259;DHT22;10787;53.364;-1.480;2023-04-19T08:21:34;11.10;1.00
21259;DHT22;10787;53.364;-1.480;2023-04-19T08:24:19;11.10;1.00
21259;DHT22;10787;53.364;-1.480;2023-04-19T08:27:03;11.10;1.00
21259;DHT22;10787;53.364;-1.480;2023-04-19T08:29:47;11.20;1.00
21259;DHT22;10787;53.364;-1.480;2023-04-19T08:32:32;11.30;1.00
21259;DHT22;10787;53.364;-1.480;2023-04-19T08:35:16;11.20;1.00
21259;DHT22;10787;53.364;-1.480;2023-04-19T08:38:01;11.20;1.00
21259;DHT22;10787;53.364;-1.480;2023-04-19T08:40:51;11.20;1.00
21259;DHT22;10787;53.364;-1.480;2023-04-19T08:43:36;11.30;1.00
21259;DHT22;10787;53.364;-1.480;2023-04-19T08:46:22;11.30;1.00
21259;DHT22;10787;53.364;-1.480;2023-04-19T08:49:08;11.30;1.00
21259;DHT22;10787;53.364;-1.480;2023-04-19T08:51:54;11.40;1.00
21259;DHT22;10787;53.364;-1.480;2023-04-19T08:54:40;11.30;1.00
21259;DHT22;10787;53.364;-1.480;2023-04-19T08:57:26;11.20;1.00
21259;DHT22;10787;53.364;-1.480;2023-04-19T09:00:10;11.20;1.00
21259;DHT22;10787;53.364;-1.480;2023-04-19T09:02:55;11.30;1.00
21259;DHT22;10787;53.364;-1.480;2023-04-19T09:05:41;11.40;1.00
21259;DHT22;10787;53.364;-1.480;2023-04-19T09:08:29;11.40;1.00
21259;DHT22;10787;53.364;-1.480;2023-04-19T09:11:14;11.50;1.00
21259;DHT22;10787;53.364;-1.480;2023-04-19T09:14:10;11.50;1.00
21259;DHT22;10787;53.364;-1.480;2023-04-19T09:17:15;11.60;1.00
21259;DHT22;10787;53.364;-1.480;2023-04-19T09:19:59;11.80;1.00
21259;DHT22;10787;53.364;-1.480;2023-04-19T09:23:02;11.90;1.00
21259;DHT22;10787;53.364;-1.480;2023-04-19T09:25:53;12.10;1.00
21259;DHT22;10787;53.364;-1.480;2023-04-19T09:28:37;12.20;1.00
21259;DHT22;10787;53.364;-1.480;2023-04-19T09:31:23;12.40;1.00
21259;DHT22;10787;53.364;-1.480;2023-04-19T09:34:12;12.60;1.00
21259;DHT22;10787;53.364;-1.480;2023-04-19T09:37:10;12.70;1.00
21259;DHT22;10787;53.364;-1.480;2023-04-19T09:39:55;12.90;1.00
21259;DHT22;10787;53.364;-1.480;2023-04-19T09:42:46;13.40;1.00
21259;DHT22;10787;53.364;-1.480;2023-04-19T09:48:25;13.80;1.00
21259;DHT22;10787;53.364;-1.480;2023-04-19T09:51:09;13.80;1.00
21259;DHT22;10787;53.364;-1.480;2023-04-19T09:53:54;13.90;1.00
21259;DHT22;10787;53.364;-1.480;2023-04-19T09:56:39;13.90;1.00
21259;DHT22;10787;53.364;-1.480;2023-04-19T09:59:24;13.90;1.00
21259;DHT22;10787;53.364;-1.480;2023-04-19T10:02:09;14.00;1.00
21259;DHT22;10787;53.364;-1.480;2023-04-19T10:04:56;14.10;1.00
21259;DHT22;10787;53.364;-1.480;2023-04-19T10:07:41;14.10;1.00
21259;DHT22;10787;53.364;-1.480;2023-04-19T10:10:26;14.10;1.00
21259;DHT22;10787;53.364;-1.480;2023-04-19T10:13:12;14.00;1.00
21259;DHT22;10787;53.364;-1.480;2023-04-19T10:15:59;13.80;1.00
21259;DHT22;10787;53.364;-1.480;2023-04-19T10:18:44;13.70;1.00
21259;DHT22;10787;53.364;-1.480;2023-04-19T10:21:29;13.70;1.00
21259;DHT22;10787;53.364;-1.480;2023-04-19T10:24:15;13.30;1.00
21259;DHT22;10787;53.364;-1.480;2023-04-19T10:27:12;13.20;1.00
21259;DHT22;10787;53.364;-1.480;2023-04-19T10:29:58;13.10;1.00
21259;DHT22;10787;53.364;-1.480;2023-04-19T10:32:44;13.10;1.00
21259;DHT22;10787;53.364;-1.480;2023-04-19T10:35:36;13.30;1.00
21259;DHT22;10787;53.364;-1.480;2023-04-19T10:38:38;13.50;1.00
21259;DHT22;10787;53.364;-1.480;2023-04-19T10:41:22;13.80;1.00
21259;DHT22;10787;53.364;-1.480;2023-04-19T10:44:10;13.90;1.00
21259;DHT22;10787;53.364;-1.480;2023-04-19T10:46:55;14.20;1.00
21259;DHT22;10787;53.364;-1.480;2023-04-19T10:49:44;14.40;1.00
21259;DHT22;10787;53.364;-1.480;2023-04-19T10:52:29;14.60;1.00
21259;DHT22;10787;53.364;-1.480;2023-04-19T10:55:14;14.50;1.00
21259;DHT22;10787;53.364;-1.480;2023-04-19T10:58:02;14.50;1.00
21259;DHT22;10787;53.364;-1.480;2023-04-19T11:00:47;14.40;1.00
21259;DHT22;10787;53.364;-1.480;2023-04-19T11:06:27;14.30;1.00
21259;DHT22;10787;53.364;-1.480;2023-04-19T11:09:27;14.40;1.00
21259;DHT22;10787;53.364;-1.480;2023-04-19T11:12:15;14.50;1.00
21259;DHT22;10787;53.364;-1.480;2023-04-19T11:14:59;14.60;1.00
21259;DHT22;10787;53.364;-1.480;2023-04-19T11:17:44;14.90;1.00
21259;DHT22;10787;53.364;-1.480;2023-04-19T11:20:32;15.10;1.00
21259;DHT22;10787;53.364;-1.480;2023-04-19T11:23:17;15.20;1.00
21259;DHT22;10787;53.364;-1.480;2023-04-19T11:26:01;15.40;1.00
21259;DHT22;10787;53.364;-1.480;2023-04-19T11:28:45;15.70;1.00
21259;DHT22;10787;53.364;-1.480;2023-04-19T11:31:31;16.00;1.00
21259;DHT22;10787;53.364;-1.480;2023-04-19T11:34:16;16.20;1.00
21259;DHT22;10787;53.364;-1.480;2023-04-19T11:37:02;16.00;1.00
21259;DHT22;10787;53.364;-1.480;2023-04-19T11:39:46;16.30;1.00
21259;DHT22;10787;53.364;-1.480;2023-04-19T11:42:31;16.50;1.00
21259;DHT22;10787;53.364;-1.480;2023-04-19T11:45:32;16.60;1.00
21259;DHT22;10787;53.364;-1.480;2023-04-19T11:48:17;17.00;1.00
21259;DHT22;10787;53.364;-1.480;2023-04-19T11:51:01;17.50;1.00
21259;DHT22;10787;53.364;-1.480;2023-04-19T11:53:46;18.30;1.00
21259;DHT22;10787;53.364;-1.480;2023-04-19T11:56:30;18.80;1.00
21259;DHT22;10787;53.364;-1.480;2023-04-19T11:59:15;19.10;1.00
21259;DHT22;10787;53.364;-1.480;2023-04-19T12:02:09;19.70;1.00
21259;DHT22;10787;53.364;-1.480;2023-04-19T12:04:54;19.40;1.00
21259;DHT22;10787;53.364;-1.480;2023-04-19T12:07:59;19.00;1.00
21259;DHT22;10787;53.364;-1.480;2023-04-19T12:10:57;18.30;1.00
21259;DHT22;10787;53.364;-1.480;2023-04-19T12:13:42;18.10;1.00
21259;DHT22;10787;53.364;-1.480;2023-04-19T12:16:27;17.90;1.00
21259;DHT22;10787;53.364;-1.480;2023-04-19T12:19:16;17.50;1.00
21259;DHT22;10787;53.364;-1.480;2023-04-19T12:22:17;17.80;1.00
21259;DHT22;10787;53.364;-1.480;2023-04-19T12:25:06;18.00;1.00
21259;DHT22;10787;53.364;-1.480;2023-04-19T12:27:51;17.80;1.00
21259;DHT22;10787;53.364;-1.480;2023-04-19T12:30:35;17.70;1.00
21259;DHT22;10787;53.364;-1.480;2023-04-19T12:33:20;17.40;1.00
21259;DHT22;10787;53.364;-1.480;2023-04-19T12:36:04;18.00;1.00
21259;DHT22;10787;53.364;-1.480;2023-04-19T12:38:48;19.20;1.00
21259;DHT22;10787;53.364;-1.480;2023-04-19T12:41:32;20.90;1.00
21259;DHT22;10787;53.364;-1.480;2023-04-19T12:44:17;21.60;1.00
21259;DHT22;10787;53.364;-1.480;2023-04-19T12:47:01;21.80;1.00
21259;DHT22;10787;53.364;-1.480;2023-04-19T12:49:46;21.50;1.00
21259;DHT22;10787;53.364;-1.480;2023-04-19T12:52:30;22.00;1.00
21259;DHT22;10787;53.364;-1.480;2023-04-19T12:55:14;23.50;1.00
21259;DHT22;10787;53.364;-1.480;2023-04-19T12:57:59;25.00;1.00
21259;DHT22;10787;53.364;-1.480;2023-04-19T13:00:43;25.70;1.00
21259;DHT22;10787;53.364;-1.480;2023-04-19T13:03:28;26.10;1.00
21259;DHT22;10787;53.364;-1.480;2023-04-19T13:06:15;25.80;1.00
21259;DHT22;10787;53.364;-1.480;2023-04-19T13:09:00;25.40;1.00
21259;DHT22;10787;53.364;-1.480;2023-04-19T13:11:44;25.30;1.00
21259;DHT22;10787;53.364;-1.480;2023-04-19T13:14:28;25.40;1.00
21259;DHT22;10787;53.364;-1.480;2023-04-19T13:17:12;26.20;1.00
21259;DHT22;10787;53.364;-1.480;2023-04-19T13:19:56;26.90;1.00
21259;DHT22;10787;53.364;-1.480;2023-04-19T13:22:41;26.30;1.00
21259;DHT22;10787;53.364;-1.480;2023-04-19T13:25:25;26.20;1.00
21259;DHT22;10787;53.364;-1.480;2023-04-19T13:28:09;26.40;1.00
21259;DHT22;10787;53.364;-1.480;2023-04-19T13:30:53;27.30;1.00
21259;DHT22;10787;53.364;-1.480;2023-04-19T13:33:38;27.80;1.00
21259;DHT22;10787;53.364;-1.480;2023-04-19T13:36:22;28.10;1.00
21259;DHT22;10787;53.364;-1.480;2023-04-19T13:39:06;28.00;1.00
21259;DHT22;10787;53.364;-1.480;2023-04-19T13:41:51;27.90;1.00
21259;DHT22;10787;53.364;-1.480;2023-04-19T13:44:35;28.00;1.00
21259;DHT22;10787;53.364;-1.480;2023-04-19T13:47:19;27.90;1.00
21259;DHT22;10787;53.364;-1.480;2023-04-19T13:50:03;27.30;1.00
21259;DHT22;10787;53.364;-1.480;2023-04-19T13:52:48;27.30;1.00
21259;DHT22;10787;53.364;-1.480;2023-04-19T13:55:32;27.20;1.00
21259;DHT22;10787;53.364;-1.480;2023-04-19T13:58:17;27.20;1.00
21259;DHT22;10787;53.364;-1.480;2023-04-19T14:01:01;26.30;1.00
21259;DHT22;10787;53.364;-1.480;2023-04-19T14:03:46;26.70;1.00
21259;DHT22;10787;53.364;-1.480;2023-04-19T14:06:31;27.00;1.00
21259;DHT22;10787;53.364;-1.480;2023-04-19T14:09:15;27.20;1.00
21259;DHT22;10787;53.364;-1.480;2023-04-19T14:12:00;27.30;1.00
21259;DHT22;10787;53.364;-1.480;2023-04-19T14:14:45;27.40;1.00
21259;DHT22;10787;53.364;-1.480;2023-04-19T14:17:29;26.90;1.00
21259;DHT22;10787;53.364;-1.480;2023-04-19T14:20:13;27.10;1.00
21259;DHT22;10787;53.364;-1.480;2023-04-19T14:22:58;27.90;1.00
21259;DHT22;10787;53.364;-1.480;2023-04-19T14:25:43;28.70;1.00
21259;DHT22;10787;53.364;-1.480;2023-04-19T14:28:28;28.90;1.00
21259;DHT22;10787;53.364;-1.480;2023-04-19T14:31:12;29.10;1.00
21259;DHT22;10787;53.364;-1.480;2023-04-19T14:33:56;28.90;1.00
21259;DHT22;10787;53.364;-1.480;2023-04-19T14:36:42;29.30;1.00
21259;DHT22;10787;53.364;-1.480;2023-04-19T14:39:27;29.00;1.00
21259;DHT22;10787;53.364;-1.480;2023-04-19T14:42:11;28.70;1.00
21259;DHT22;10787;53.364;-1.480;2023-04-19T14:44:57;28.60;1.00
21259;DHT22;10787;53.364;-1.480;2023-04-19T14:47:41;28.50;1.00
21259;DHT22;10787;53.364;-1.480;2023-04-19T14:50:26;27.70;1.00
21259;DHT22;10787;53.364;-1.480;2023-04-19T14:53:15;28.40;1.00
21259;DHT22;10787;53.364;-1.480;2023-04-19T14:56:02;28.90;1.00
21259;DHT22;10787;53.364;-1.480;2023-04-19T14:58:53;29.50;1.00
21259;DHT22;10787;53.364;-1.480;2023-04-19T15:01:38;29.50;1.00
21259;DHT22;10787;53.364;-1.480;2023-04-19T15:04:22;29.10;1.00
21259;DHT22;10787;53.364;-1.480;2023-04-19T15:07:09;28.90;1.00
21259;DHT22;10787;53.364;-1.480;2023-04-19T15:09:56;28.90;1.00
21259;DHT22;10787;53.364;-1.480;2023-04-19T15:12:51;28.30;1.00
21259;DHT22;10787;53.364;-1.480;2023-04-19T15:15:35;28.40;1.00
21259;DHT22;10787;53.364;-1.480;2023-04-19T15:18:19;28.50;1.00
21259;DHT22;10787;53.364;-1.480;2023-04-19T15:21:04;28.30;1.00
21259;DHT22;10787;53.364;-1.480;2023-04-19T15:23:49;28.70;1.00
21259;DHT22;10787;53.364;-1.480;2023-04-19T15:26:34;28.70;1.00
21259;DHT22;10787;53.364;-1.480;2023-04-19T15:29:18;28.30;1.00
21259;DHT22;10787;53.364;-1.480;2023-04-19T15:32:06;28.50;1.00
21259;DHT22;10787;53.364;-1.480;2023-04-19T15:34:50;28.00;1.00
21259;DHT22;10787;53.364;-1.480;2023-04-19T15:37:40;28.00;1.00
21259;DHT22;10787;53.364;-1.480;2023-04-19T15:40:29;27.90;1.00
21259;DHT22;10787;53.364;-1.480;2023-04-19T15:43:14;27.70;1.00
21259;DHT22;10787;53.364;-1.480;2023-04-19T15:45:58;27.40;1.00
21259;DHT22;10787;53.364;-1.480;2023-04-19T15:48:45;27.70;1.00
21259;DHT22;10787;53.364;-1.480;2023-04-19T15:51:40;27.30;1.00
21259;DHT22;10787;53.364;-1.480;2023-04-19T15:54:26;27.00;1.00
21259;DHT22;10787;53.364;-1.480;2023-04-19T15:57:12;27.40;1.00
21259;DHT22;10787;53.364;-1.480;2023-04-19T15:59:59;28.00;1.00
21259;DHT22;10787;53.364;-1.480;2023-04-19T16:02:56;28.20;1.00
21259;DHT22;10787;53.364;-1.480;2023-04-19T16:05:46;27.80;1.00
21259;DHT22;10787;53.364;-1.480;2023-04-19T16:08:35;27.60;1.00
21259;DHT22;10787;53.364;-1.480;2023-04-19T16:11:22;28.00;1.00
21259;DHT22;10787;53.364;-1.480;2023-04-19T16:14:09;28.50;1.00
21259;DHT22;10787;53.364;-1.480;2023-04-19T16:16:53;28.40;1.00
21259;DHT22;10787;53.364;-1.480;2023-04-19T16:19:38;28.30;1.00
21259;DHT22;10787;53.364;-1.480;2023-04-19T16:22:23;28.40;1.00
21259;DHT22;10787;53.364;-1.480;2023-04-19T16:25:08;27.70;1.00
21259;DHT22;10787;53.364;-1.480;2023-04-19T16:27:54;27.40;1.00
21259;DHT22;10787;53.364;-1.480;2023-04-19T16:30:38;27.50;1.00
21259;DHT22;10787;53.364;-1.480;2023-04-19T16:33:23;27.30;1.00
21259;DHT22;10787;53.364;-1.480;2023-04-19T16:36:07;27.20;1.00
21259;DHT22;10787;53.364;-1.480;2023-04-19T16:38:51;27.20;1.00
21259;DHT22;10787;53.364;-1.480;2023-04-19T16:41:35;27.10;1.00
21259;DHT22;10787;53.364;-1.480;2023-04-19T16:44:20;26.40;1.00
21259;DHT22;10787;53.364;-1.480;2023-04-19T16:47:04;25.90;1.00
21259;DHT22;10787;53.364;-1.480;2023-04-19T16:49:52;25.90;1.00
21259;DHT22;10787;53.364;-1.480;2023-04-19T16:52:39;25.70;1.00
21259;DHT22;10787;53.364;-1.480;2023-04-19T16:55:24;26.00;1.00
21259;DHT22;10787;53.364;-1.480;2023-04-19T16:58:08;25.60;1.00
21259;DHT22;10787;53.364;-1.480;2023-04-19T17:00:52;25.60;1.00
21259;DHT22;10787;53.364;-1.480;2023-04-19T17:03:36;25.20;1.00
21259;DHT22;10787;53.364;-1.480;2023-04-19T17:06:20;25.00;1.00
21259;DHT22;10787;53.364;-1.480;2023-04-19T17:09:05;25.20;1.00
21259;DHT22;10787;53.364;-1.480;2023-04-19T17:11:50;25.60;1.00
21259;DHT22;10787;53.364;-1.480;2023-04-19T17:14:35;25.00;1.00
21259;DHT22;10787;53.364;-1.480;2023-04-19T17:17:19;24.90;1.00
21259;DHT22;10787;53.364;-1.480;2023-04-19T17:20:04;24.90;1.00
21259;DHT22;10787;53.364;-1.480;2023-04-19T17:22:49;25.10;1.00
21259;DHT22;10787;53.364;-1.480;2023-04-19T17:25:33;24.50;1.00
21259;DHT22;10787;53.364;-1.480;2023-04-19T17:28:17;24.60;1.00
21259;DHT22;10787;53.364;-1.480;2023-04-19T17:31:02;24.20;1.00
21259;DHT22;10787;53.364;-1.480;2023-04-19T17:33:46;24.00;1.00
21259;DHT22;10787;53.364;-1.480;2023-04-19T17:36:30;23.50;1.00
21259;DHT22;10787;53.364;-1.480;2023-04-19T17:39:15;23.30;1.00